Time;durP1;ratioP1;P1;durP2;ratioP2;P2;SDS_P1;SDS_P2;PMS_P1;PMS_P2;Temp;Humidity;BMP_temperature;BMP_pressure;BME280_temperature;BME280_humidity;BME280_pressure;Samples;Min_cycle;Max_cycle;Signal;HPM_P1;HPM_P2
2023/05/08 00:02:23;;;;;;;10.47;9.57;;;11.40;99.90;;;;;;4957180;28;20453;-70
2023/05/08 00:04:51;;;;;;;10.50;9.70;;;11.40;99.90;;;;;;4956885;29;20473;-71
2023/05/08 00:07:20;;;;;;;6.90;6.30;;;11.30;99.90;;;;;;4956874;29;20442;-70
2023/05/08 00:09:48;;;;;;;10.83;9.93;;;11.30;99.90;;;;;;4956788;29;20474;-71
2023/05/08 00:12:17;;;;;;;11.03;10.13;;;11.30;99.90;;;;;;4956315;29;20449;-70
2023/05/08 00:14:45;;;;;;;11.07;10.17;;;11.30;99.90;;;;;;4957786;29;20971;-70
2023/05/08 00:17:13;;;;;;;10.20;9.40;;;11.20;99.90;;;;;;4956991;29;20447;-70
2023/05/08 00:19:41;;;;;;;10.87;9.97;;;11.20;99.90;;;;;;4957892;29;20925;-70
2023/05/08 00:22:09;;;;;;;11.23;10.27;;;11.20;99.90;;;;;;4957682;29;20447;-70
2023/05/08 00:24:37;;;;;;;11.20;10.20;;;11.20;99.90;;;;;;4956228;29;20482;-69
2023/05/08 00:27:06;;;;;;;11.03;10.13;;;11.10;99.90;;;;;;4957070;29;20442;-70
2023/05/08 00:29:36;;;;;;;11.53;10.53;;;11.10;99.90;;;;;;4954158;28;20467;-71
2023/05/08 00:32:04;;;;;;;11.70;10.70;;;11.10;99.90;;;;;;4955423;29;20868;-71
2023/05/08 00:34:33;;;;;;;12.03;10.93;;;11.00;99.90;;;;;;4956019;28;20465;-71
2023/05/08 00:37:01;;;;;;;10.90;10.00;;;11.00;99.90;;;;;;4955091;29;20451;-70
2023/05/08 00:39:29;;;;;;;11.40;10.50;;;11.00;99.90;;;;;;4956383;29;20446;-71
2023/05/08 00:41:58;;;;;;;11.60;10.40;;;11.00;99.90;;;;;;4955013;29;20450;-71
2023/05/08 00:44:26;;;;;;;11.43;10.30;;;10.90;99.90;;;;;;4956222;29;21018;-70
2023/05/08 00:46:56;;;;;;;11.90;10.90;;;10.90;99.90;;;;;;4954924;29;20450;-70
2023/05/08 00:49:25;;;;;;;10.80;9.90;;;10.90;99.90;;;;;;4956410;28;20481;-70
2023/05/08 00:51:55;;;;;;;11.97;10.97;;;10.80;99.90;;;;;;4955081;29;20446;-71
2023/05/08 00:54:24;;;;;;;11.77;10.77;;;10.80;99.90;;;;;;4956261;28;20470;-70
2023/05/08 00:56:53;;;;;;;11.37;10.47;;;10.80;99.90;;;;;;4956349;29;20446;-71
2023/05/08 00:59:22;;;;;;;11.60;10.67;;;10.80;99.90;;;;;;4956192;28;20446;-70
2023/05/08 01:01:51;;;;;;;10.50;9.70;;;10.80;99.90;;;;;;4956145;28;20470;-70
2023/05/08 01:04:24;;;;;;;10.73;9.83;;;10.80;99.90;;;;;;4954979;29;20470;-70
2023/05/08 01:06:52;;;;;;;11.47;10.47;;;10.80;99.90;;;;;;4954720;29;20804;-70
2023/05/08 01:09:20;;;;;;;12.10;11.10;;;10.80;99.90;;;;;;4954275;29;20550;-70
2023/05/08 01:11:55;;;;;;;11.90;10.90;;;10.80;99.90;;;;;;4954506;29;20442;-71
2023/05/08 01:14:32;;;;;;;11.83;10.93;;;10.70;99.90;;;;;;4954542;29;20477;-70
2023/05/08 01:17:08;;;;;;;12.00;11.00;;;10.80;99.90;;;;;;4954546;29;20442;-70
2023/05/08 01:19:58;;;;;;;12.07;11.17;;;10.70;99.90;;;;;;4955921;29;20449;-70
2023/05/08 01:22:51;;;;;;;11.60;10.60;;;10.70;99.90;;;;;;4955805;29;20959;-70
2023/05/08 01:26:01;;;;;;;11.90;11.00;;;10.70;99.90;;;;;;4954487;29;20471;-70
2023/05/08 01:28:51;;;;;;;11.70;10.80;;;10.60;99.90;;;;;;4886656;28;20449;-71
2023/05/08 01:31:25;;;;;;;11.40;10.40;;;10.60;99.90;;;;;;4954864;29;20471;-70
2023/05/08 01:34:03;;;;;;;12.37;11.27;;;10.60;99.90;;;;;;4955089;29;20473;-70
2023/05/08 01:36:38;;;;;;;12.40;11.40;;;10.60;99.90;;;;;;4955188;29;20438;-70
2023/05/08 01:39:15;;;;;;;10.97;10.07;;;10.60;99.90;;;;;;4956047;29;20415;-70
2023/05/08 01:41:50;;;;;;;12.07;11.17;;;10.60;99.90;;;;;;4958596;29;20438;-70
2023/05/08 01:44:21;;;;;;;11.37;10.33;;;10.60;99.90;;;;;;4959714;29;20503;-70
2023/05/08 01:46:50;;;;;;;11.73;10.77;;;10.50;99.90;;;;;;4960570;28;20426;-70
2023/05/08 01:49:26;;;;;;;12.17;11.07;;;10.50;99.90;;;;;;4958893;29;20450;-70
2023/05/08 01:51:58;;;;;;;13.23;11.90;;;10.50;99.90;;;;;;4958324;29;20470;-70
2023/05/08 01:54:30;;;;;;;12.47;11.43;;;10.40;99.90;;;;;;4958549;29;20473;-70
2023/05/08 01:57:01;;;;;;;13.30;12.20;;;10.40;99.90;;;;;;4960266;29;20431;-70
2023/05/08 01:59:32;;;;;;;12.10;11.10;;;10.40;99.90;;;;;;4958792;29;20451;-70
2023/05/08 02:02:02;;;;;;;13.30;12.30;;;10.40;99.90;;;;;;4958642;29;20943;-70
2023/05/08 02:04:34;;;;;;;11.67;10.77;;;10.30;99.90;;;;;;4957839;29;20454;-70
2023/05/08 02:07:07;;;;;;;13.30;12.30;;;10.40;99.90;;;;;;4959174;28;20812;-70
2023/05/08 02:09:37;;;;;;;13.03;11.97;;;10.30;99.90;;;;;;4957489;29;20450;-70
2023/05/08 02:12:08;;;;;;;12.33;11.37;;;10.30;99.90;;;;;;4958735;28;20499;-70
2023/05/08 02:14:37;;;;;;;13.80;12.70;;;10.30;99.90;;;;;;4957534;29;20478;-70
2023/05/08 02:17:08;;;;;;;12.87;11.77;;;10.30;99.90;;;;;;4958141;29;20780;-70
2023/05/08 02:19:41;;;;;;;13.20;12.10;;;10.20;99.90;;;;;;4957768;29;20454;-70
2023/05/08 02:22:09;;;;;;;12.73;11.80;;;10.20;99.90;;;;;;4957483;29;20464;-70
2023/05/08 02:24:38;;;;;;;12.63;11.60;;;10.20;99.90;;;;;;4958548;29;20543;-70
2023/05/08 02:27:08;;;;;;;12.43;11.47;;;10.20;99.90;;;;;;4958398;29;20451;-70
2023/05/08 02:29:37;;;;;;;13.63;12.57;;;10.10;99.90;;;;;;4957317;29;20475;-70
2023/05/08 02:32:07;;;;;;;13.77;12.63;;;10.10;99.90;;;;;;4957381;29;20470;-71
2023/05/08 02:34:38;;;;;;;12.60;11.60;;;10.10;99.90;;;;;;4957268;29;20466;-70
2023/05/08 02:37:18;;;;;;;13.53;12.43;;;10.10;99.90;;;;;;4957145;29;20526;-70
2023/05/08 02:39:48;;;;;;;13.07;12.00;;;10.10;99.90;;;;;;4957370;29;20446;-70
2023/05/08 02:42:16;;;;;;;13.40;12.30;;;10.00;99.90;;;;;;4958098;29;20435;-71
2023/05/08 02:44:45;;;;;;;13.40;12.30;;;10.00;99.90;;;;;;4956534;29;20470;-71
2023/05/08 02:47:20;;;;;;;12.53;11.53;;;10.00;99.90;;;;;;4956812;29;20458;-70
2023/05/08 02:49:54;;;;;;;13.30;12.23;;;10.00;99.90;;;;;;4958281;29;20418;-70
2023/05/08 02:52:28;;;;;;;13.90;12.83;;;10.00;99.90;;;;;;4955704;28;20554;-70
2023/05/08 02:55:01;;;;;;;14.20;13.10;;;9.90;99.90;;;;;;4956695;29;20502;-71
2023/05/08 02:57:37;;;;;;;13.93;12.90;;;9.90;99.90;;;;;;4959763;29;20486;-71
2023/05/08 03:00:12;;;;;;;13.40;12.40;;;9.90;99.90;;;;;;4959263;29;20537;-70
2023/05/08 03:02:44;;;;;;;13.90;12.80;;;9.90;99.90;;;;;;4957797;29;20494;-70
2023/05/08 03:05:17;;;;;;;14.40;13.20;;;9.90;99.90;;;;;;4957255;29;20976;-70
2023/05/08 03:07:48;;;;;;;13.60;12.33;;;9.90;99.90;;;;;;4958254;28;20437;-70
2023/05/08 03:10:19;;;;;;;14.47;13.37;;;9.90;99.90;;;;;;4956792;29;20916;-70
2023/05/08 03:12:50;;;;;;;16.50;15.20;;;9.80;99.90;;;;;;4956622;29;20472;-70
2023/05/08 03:15:32;;;;;;;16.23;14.87;;;9.90;99.90;;;;;;4956653;29;20553;-70
2023/05/08 03:18:06;;;;;;;17.13;15.73;;;9.80;99.90;;;;;;4958127;29;20494;-70
2023/05/08 03:20:39;;;;;;;16.03;14.60;;;9.80;99.90;;;;;;4957512;29;20941;-70
2023/05/08 03:23:10;;;;;;;17.47;16.00;;;9.80;99.90;;;;;;4957862;29;20947;-70
2023/05/08 03:25:41;;;;;;;17.10;15.60;;;9.80;99.90;;;;;;4956770;29;20474;-70
2023/05/08 03:28:12;;;;;;;15.60;14.40;;;9.70;99.90;;;;;;4956994;29;20446;-71
2023/05/08 03:30:42;;;;;;;14.40;13.30;;;9.70;99.90;;;;;;4958454;29;20438;-71
2023/05/08 03:33:14;;;;;;;15.43;14.13;;;9.70;99.90;;;;;;4956690;29;20446;-71
2023/05/08 03:35:46;;;;;;;14.20;13.10;;;9.70;99.90;;;;;;4958455;29;20479;-70
2023/05/08 03:38:15;;;;;;;15.53;14.23;;;9.70;99.90;;;;;;4960060;28;20419;-71
2023/05/08 03:40:44;;;;;;;15.50;14.27;;;9.70;99.90;;;;;;4957034;29;20555;-70
2023/05/08 03:43:12;;;;;;;14.67;13.47;;;9.60;99.90;;;;;;4957256;29;20450;-70
2023/05/08 03:45:41;;;;;;;15.77;14.47;;;9.70;99.90;;;;;;4958420;29;20877;-69
2023/05/08 03:48:10;;;;;;;14.70;13.60;;;9.60;99.90;;;;;;4956848;29;20451;-70
2023/05/08 03:50:39;;;;;;;14.60;13.50;;;9.60;99.90;;;;;;4958327;29;20502;-70
2023/05/08 03:53:11;;;;;;;14.50;13.40;;;9.60;99.90;;;;;;4956627;29;21014;-70
2023/05/08 03:55:40;;;;;;;15.53;14.33;;;9.60;99.90;;;;;;4956081;29;20474;-70
2023/05/08 03:58:17;;;;;;;15.93;14.60;;;9.50;99.90;;;;;;4956679;29;21080;-70
2023/05/08 04:00:57;;;;;;;15.03;13.80;;;9.50;99.90;;;;;;4956254;29;20443;-69
2023/05/08 04:03:32;;;;;;;15.80;14.60;;;9.50;99.90;;;;;;4955558;28;20446;-70
2023/05/08 04:06:10;;;;;;;15.00;13.90;;;9.50;99.90;;;;;;4955705;29;20473;-70
2023/05/08 04:08:48;;;;;;;15.87;14.67;;;9.50;99.90;;;;;;4955782;29;20537;-70
2023/05/08 04:11:25;;;;;;;15.57;14.37;;;9.50;99.90;;;;;;4955666;29;20466;-70
2023/05/08 04:13:59;;;;;;;15.83;14.53;;;9.40;99.90;;;;;;4955614;29;20450;-70
2023/05/08 04:16:28;;;;;;;17.73;16.33;;;9.40;99.90;;;;;;4955608;29;21011;-70
2023/05/08 04:19:02;;;;;;;18.90;17.40;;;9.40;99.90;;;;;;4955804;29;20792;-70
2023/05/08 04:21:35;;;;;;;16.57;15.27;;;9.40;99.90;;;;;;4955138;29;20449;-70
2023/05/08 04:24:08;;;;;;;16.70;15.40;;;9.40;99.90;;;;;;4954864;29;20522;-70
2023/05/08 04:26:37;;;;;;;17.47;15.97;;;9.40;99.90;;;;;;4954931;29;20543;-70
2023/05/08 04:29:06;;;;;;;16.40;15.10;;;9.40;99.90;;;;;;4955031;29;20538;-70
2023/05/08 04:31:35;;;;;;;15.60;14.47;;;9.40;99.90;;;;;;4954831;29;20502;-70
2023/05/08 04:34:04;;;;;;;15.60;14.50;;;9.40;99.90;;;;;;4954889;29;20573;-70
2023/05/08 04:36:32;;;;;;;17.27;15.97;;;9.40;99.90;;;;;;4955212;29;20509;-71
2023/05/08 04:39:02;;;;;;;16.10;14.90;;;9.40;99.90;;;;;;4954674;29;20454;-70
2023/05/08 04:41:32;;;;;;;16.93;15.63;;;9.30;99.90;;;;;;4954800;29;20454;-70
2023/05/08 04:44:00;;;;;;;17.50;16.20;;;9.30;99.90;;;;;;4956174;29;20570;-70
2023/05/08 04:46:30;;;;;;;16.07;14.87;;;9.30;99.90;;;;;;4954429;29;20538;-70
2023/05/08 04:48:58;;;;;;;15.90;14.70;;;9.30;99.90;;;;;;4955789;29;20445;-70
2023/05/08 04:51:30;;;;;;;20.03;18.23;;;9.30;99.90;;;;;;4955856;28;20947;-70
2023/05/08 04:53:58;;;;;;;17.70;16.30;;;9.40;99.90;;;;;;4954636;29;20960;-70
2023/05/08 04:56:27;;;;;;;17.40;16.00;;;9.40;99.90;;;;;;4954377;29;20458;-70
2023/05/08 04:58:57;;;;;;;17.20;15.90;;;9.40;99.90;;;;;;4955640;28;20899;-70
2023/05/08 05:01:25;;;;;;;15.93;14.70;;;9.30;99.90;;;;;;4954317;29;20521;-70
2023/05/08 05:03:54;;;;;;;18.23;16.77;;;9.40;99.90;;;;;;4954384;29;20501;-70
2023/05/08 05:06:23;;;;;;;16.43;15.13;;;9.40;99.90;;;;;;4954492;29;20820;-70
2023/05/08 05:08:51;;;;;;;16.33;14.93;;;9.40;99.90;;;;;;4954390;29;20454;-70
2023/05/08 05:11:20;;;;;;;15.63;14.43;;;9.40;99.90;;;;;;4954355;29;20963;-70
2023/05/08 05:13:48;;;;;;;15.93;14.63;;;9.40;99.90;;;;;;4955723;28;20471;-70
2023/05/08 05:16:17;;;;;;;15.80;14.50;;;9.40;99.90;;;;;;4953851;28;20455;-70
2023/05/08 05:18:46;;;;;;;15.83;14.53;;;9.40;99.90;;;;;;4954271;29;20539;-70
2023/05/08 05:21:14;;;;;;;15.40;14.20;;;9.50;99.90;;;;;;4955036;29;20457;-71
2023/05/08 05:23:43;;;;;;;16.30;15.10;;;9.50;99.90;;;;;;4954268;29;20455;-70
2023/05/08 05:26:11;;;;;;;16.03;14.83;;;9.50;99.90;;;;;;4954219;29;20855;-70
2023/05/08 05:28:39;;;;;;;16.67;15.37;;;9.50;99.90;;;;;;4955815;28;20459;-70
2023/05/08 05:31:07;;;;;;;17.13;15.83;;;9.50;99.90;;;;;;4954164;29;20535;-70
2023/05/08 05:33:37;;;;;;;15.53;14.40;;;9.60;99.90;;;;;;4955412;28;20473;-70
2023/05/08 05:36:06;;;;;;;15.50;14.30;;;9.60;99.90;;;;;;4955060;29;20446;-70
2023/05/08 05:38:35;;;;;;;15.30;14.10;;;9.60;99.90;;;;;;4955017;29;20451;-70
2023/05/08 05:41:03;;;;;;;14.53;13.43;;;9.70;99.90;;;;;;4955114;29;20447;-70
2023/05/08 05:43:32;;;;;;;14.50;13.30;;;9.70;99.90;;;;;;4957185;29;20442;-70
2023/05/08 05:46:05;;;;;;;15.33;14.13;;;9.70;99.90;;;;;;4956213;29;20478;-70
2023/05/08 05:48:34;;;;;;;15.50;14.30;;;9.80;99.90;;;;;;4956126;29;20470;-70
2023/05/08 05:51:05;;;;;;;15.17;13.97;;;9.90;99.90;;;;;;4953632;29;20477;-71
2023/05/08 05:53:34;;;;;;;14.30;13.20;;;10.10;99.90;;;;;;4953713;29;21011;-70
2023/05/08 05:56:02;;;;;;;14.27;13.13;;;10.30;99.90;;;;;;4953610;29;20470;-71
2023/05/08 05:58:32;;;;;;;14.50;13.40;;;10.50;99.90;;;;;;4953716;29;20462;-70
2023/05/08 06:01:00;;;;;;;13.70;12.40;;;10.70;99.90;;;;;;4953673;29;20960;-70
2023/05/08 06:03:30;;;;;;;13.43;12.40;;;10.90;99.90;;;;;;4953602;29;20450;-70
2023/05/08 06:05:58;;;;;;;13.80;12.80;;;11.20;99.90;;;;;;4954796;28;20458;-70
2023/05/08 06:08:28;;;;;;;12.73;11.40;;;11.50;99.90;;;;;;4953717;29;20453;-69
2023/05/08 06:10:57;;;;;;;13.30;12.30;;;11.80;99.90;;;;;;4953311;29;20561;-70
2023/05/08 06:13:25;;;;;;;12.57;11.50;;;11.90;99.90;;;;;;4954546;29;20983;-70
2023/05/08 06:15:56;;;;;;;12.27;11.27;;;11.90;99.90;;;;;;4953508;29;20884;-70
2023/05/08 06:18:24;;;;;;;12.33;11.33;;;11.90;99.90;;;;;;4953752;29;20534;-70
2023/05/08 06:20:56;;;;;;;12.87;11.80;;;12.00;99.90;;;;;;4953596;29;20454;-70
2023/05/08 06:23:24;;;;;;;13.03;11.93;;;11.90;99.90;;;;;;4955154;28;20427;-70
2023/05/08 06:25:54;;;;;;;13.53;12.50;;;11.90;99.90;;;;;;4954499;28;20464;-70
2023/05/08 06:28:24;;;;;;;13.73;12.60;;;11.80;99.90;;;;;;4957185;29;20438;-70
2023/05/08 06:30:52;;;;;;;13.70;12.60;;;11.80;99.90;;;;;;4959487;29;20423;-70
2023/05/08 06:33:21;;;;;;;13.97;12.87;;;11.80;99.90;;;;;;4958702;29;20475;-70
2023/05/08 06:35:51;;;;;;;14.63;13.43;;;11.80;99.90;;;;;;4958179;29;20465;-70
2023/05/08 06:38:19;;;;;;;13.57;12.37;;;11.70;99.90;;;;;;4957976;29;20443;-70
2023/05/08 06:40:48;;;;;;;14.00;12.90;;;11.80;99.90;;;;;;4958065;29;20442;-70
2023/05/08 06:43:18;;;;;;;13.97;12.87;;;11.80;99.90;;;;;;4957502;28;20541;-69
2023/05/08 06:45:46;;;;;;;13.30;12.20;;;11.80;99.90;;;;;;4957829;28;20509;-70
2023/05/08 06:48:14;;;;;;;12.73;11.73;;;11.80;99.90;;;;;;4957718;29;20447;-70
2023/05/08 06:50:42;;;;;;;13.27;12.17;;;11.90;99.90;;;;;;4958047;29;20446;-70
2023/05/08 06:53:10;;;;;;;12.80;11.80;;;11.90;99.90;;;;;;4956606;29;20471;-70
2023/05/08 06:55:38;;;;;;;14.63;13.43;;;11.90;99.90;;;;;;4957795;29;20462;-70
2023/05/08 06:58:06;;;;;;;14.53;13.33;;;12.00;99.90;;;;;;4957762;29;20801;-70
2023/05/08 07:00:36;;;;;;;12.27;11.30;;;12.10;99.90;;;;;;4958195;29;20438;-70
2023/05/08 07:03:04;;;;;;;15.60;14.03;;;12.20;99.90;;;;;;4958630;29;20439;-69
2023/05/08 07:05:32;;;;;;;13.13;12.03;;;12.30;99.90;;;;;;4956949;29;20800;-70
2023/05/08 07:08:00;;;;;;;14.13;12.77;;;12.40;99.90;;;;;;4958335;29;20446;-70
2023/05/08 07:10:28;;;;;;;13.90;12.70;;;12.50;99.90;;;;;;4958560;29;20442;-70
2023/05/08 07:12:57;;;;;;;18.67;14.30;;;12.70;99.90;;;;;;4957855;28;20470;-69
2023/05/08 07:15:25;;;;;;;13.20;12.13;;;12.90;99.90;;;;;;4957664;29;20462;-70
2023/05/08 07:17:55;;;;;;;14.27;13.00;;;13.20;99.90;;;;;;4956519;29;20464;-70
2023/05/08 07:20:24;;;;;;;12.77;11.67;;;13.40;99.90;;;;;;4957871;28;20446;-69
2023/05/08 07:22:52;;;;;;;13.83;12.53;;;13.70;99.90;;;;;;4956430;29;20537;-70
2023/05/08 07:25:20;;;;;;;12.77;11.77;;;13.90;99.90;;;;;;4957512;29;20458;-69
2023/05/08 07:27:48;;;;;;;12.07;11.17;;;14.10;99.90;;;;;;4956604;29;20481;-70
2023/05/08 07:30:16;;;;;;;12.20;11.20;;;14.30;99.90;;;;;;4957658;29;20991;-70
2023/05/08 07:32:44;;;;;;;12.93;11.70;;;14.40;99.90;;;;;;4956334;29;20446;-70
2023/05/08 07:35:14;;;;;;;13.40;12.10;;;14.50;99.90;;;;;;4958173;29;20474;-69
2023/05/08 07:37:43;;;;;;;12.93;11.83;;;14.60;99.90;;;;;;4957155;28;20454;-70
2023/05/08 07:40:11;;;;;;;12.77;11.77;;;14.80;99.90;;;;;;4957605;29;20450;-70
2023/05/08 07:42:40;;;;;;;16.10;13.67;;;14.90;99.90;;;;;;4958112;29;21036;-72
2023/05/08 07:45:10;;;;;;;12.47;11.50;;;15.20;99.90;;;;;;4957027;28;20536;-70
2023/05/08 07:47:40;;;;;;;12.40;11.23;;;15.30;99.90;;;;;;4956226;29;20439;-70
2023/05/08 07:50:08;;;;;;;12.60;11.57;;;15.50;99.90;;;;;;4955939;29;20451;-72
2023/05/08 07:52:38;;;;;;;12.50;11.50;;;15.60;99.90;;;;;;4957190;29;20450;-72
2023/05/08 07:55:07;;;;;;;13.57;12.37;;;15.80;99.90;;;;;;4956917;29;20482;-70
2023/05/08 07:57:38;;;;;;;12.30;11.40;;;15.90;99.90;;;;;;4957428;29;20890;-72
2023/05/08 08:00:08;;;;;;;12.90;11.73;;;16.00;99.90;;;;;;4956898;29;20418;-72
2023/05/08 08:02:42;;;;;;;12.13;11.13;;;16.20;99.90;;;;;;4957410;29;20486;-72
2023/05/08 08:05:10;;;;;;;12.73;11.57;;;16.30;99.90;;;;;;4956514;29;20460;-72
2023/05/08 08:07:40;;;;;;;12.03;11.13;;;16.50;99.90;;;;;;4956956;29;20417;-72
2023/05/08 08:10:09;;;;;;;12.80;11.80;;;16.60;99.90;;;;;;4956507;29;20959;-72
2023/05/08 08:12:37;;;;;;;12.17;11.17;;;16.70;99.90;;;;;;4956766;29;20425;-70
2023/05/08 08:15:06;;;;;;;10.57;9.70;;;16.90;99.90;;;;;;4956181;28;20488;-72
2023/05/08 08:17:34;;;;;;;11.33;10.43;;;17.00;99.90;;;;;;4956688;28;20788;-72
2023/05/08 08:20:02;;;;;;;12.00;11.07;;;17.10;99.90;;;;;;4956333;29;20428;-71
2023/05/08 08:22:30;;;;;;;12.50;11.50;;;17.20;99.90;;;;;;4956218;29;20952;-72
2023/05/08 08:24:59;;;;;;;12.50;11.60;;;17.20;99.90;;;;;;4956642;29;20465;-71
2023/05/08 08:27:27;;;;;;;12.43;11.47;;;17.30;99.90;;;;;;4956900;29;20476;-71
2023/05/08 08:29:55;;;;;;;12.07;11.17;;;17.30;99.90;;;;;;4955167;29;20430;-71
2023/05/08 08:32:44;;;;;;;12.70;11.40;;;17.20;99.90;;;;;;4957238;29;20472;-72
2023/05/08 08:35:12;;;;;;;13.30;12.20;;;17.20;99.90;;;;;;4956158;29;20456;-71
2023/05/08 08:37:40;;;;;;;11.37;10.47;;;17.20;99.90;;;;;;4955448;29;20420;-72
2023/05/08 08:40:10;;;;;;;12.37;11.23;;;17.20;99.90;;;;;;4956366;29;20870;-71
2023/05/08 08:42:39;;;;;;;12.10;11.10;;;17.30;99.90;;;;;;4956554;28;20417;-72
2023/05/08 08:45:09;;;;;;;11.83;10.87;;;17.30;99.90;;;;;;4955309;29;20503;-71
2023/05/08 08:47:39;;;;;;;12.40;11.37;;;17.40;99.90;;;;;;4957028;29;20764;-71
2023/05/08 08:50:09;;;;;;;12.07;11.07;;;17.50;99.90;;;;;;4955785;28;20417;-72
2023/05/08 08:52:47;;;;;;;12.93;11.73;;;17.60;99.90;;;;;;4956924;29;20398;-71
2023/05/08 08:55:18;;;;;;;11.90;10.90;;;17.70;99.90;;;;;;4956898;28;20456;-71
2023/05/08 08:58:00;;;;;;;11.60;10.60;;;17.80;99.90;;;;;;4956696;29;20430;-72
2023/05/08 09:00:31;;;;;;;12.43;11.33;;;17.90;99.90;;;;;;4956854;29;20521;-71
2023/05/08 09:03:00;;;;;;;11.23;10.33;;;18.00;99.90;;;;;;4956580;29;20450;-71
2023/05/08 09:05:28;;;;;;;11.57;10.60;;;18.00;99.90;;;;;;4956679;29;20462;-71
2023/05/08 09:07:57;;;;;;;12.07;11.17;;;18.10;99.90;;;;;;4954332;29;20447;-68
2023/05/08 09:10:26;;;;;;;12.43;11.33;;;18.20;99.90;;;;;;4955364;29;20514;-69
2023/05/08 09:12:54;;;;;;;12.50;11.40;;;18.30;99.90;;;;;;4955973;28;20446;-68
2023/05/08 09:15:22;;;;;;;12.17;11.17;;;18.30;99.90;;;;;;4954496;29;20460;-69
2023/05/08 09:17:50;;;;;;;12.87;11.87;;;18.30;99.90;;;;;;4955963;28;20448;-69
2023/05/08 09:20:19;;;;;;;13.80;12.70;;;18.30;99.90;;;;;;4955918;29;20435;-68
2023/05/08 09:22:48;;;;;;;12.73;11.67;;;18.40;99.90;;;;;;4955641;29;20521;-68
2023/05/08 09:25:17;;;;;;;12.17;11.17;;;18.50;99.90;;;;;;4955741;29;20473;-68
2023/05/08 09:27:47;;;;;;;12.43;11.30;;;18.50;99.90;;;;;;4955468;28;20445;-69
2023/05/08 09:30:15;;;;;;;13.00;11.90;;;18.60;99.90;;;;;;4955408;28;20442;-69
2023/05/08 09:32:44;;;;;;;12.50;11.50;;;18.70;99.90;;;;;;4954964;29;20439;-68
2023/05/08 09:35:12;;;;;;;13.37;12.30;;;18.80;99.90;;;;;;4953703;29;21022;-69
2023/05/08 09:37:42;;;;;;;12.20;11.20;;;18.90;99.90;;;;;;4955319;28;20434;-69
2023/05/08 09:40:19;;;;;;;12.50;11.50;;;18.90;99.90;;;;;;4955391;29;20477;-69
2023/05/08 09:42:50;;;;;;;13.00;11.90;;;18.90;99.90;;;;;;4954769;29;20422;-69
2023/05/08 09:45:37;;;;;;;12.80;11.70;;;19.00;99.90;;;;;;4954890;29;20565;-69
2023/05/08 09:48:06;;;;;;;13.40;12.10;;;19.00;99.90;;;;;;4955093;28;20486;-69
2023/05/08 09:50:34;;;;;;;13.30;12.30;;;19.10;99.90;;;;;;4954845;28;20514;-69
2023/05/08 09:53:02;;;;;;;13.20;12.10;;;19.30;99.90;;;;;;4954702;29;20458;-69
2023/05/08 09:55:46;;;;;;;13.80;12.70;;;19.30;99.90;;;;;;4954413;29;20999;-69
2023/05/08 09:58:16;;;;;;;14.30;13.20;;;19.50;99.90;;;;;;4955099;29;20426;-69
2023/05/08 10:00:44;;;;;;;13.20;11.97;;;19.50;99.90;;;;;;4954919;28;20446;-69
2023/05/08 10:03:12;;;;;;;13.87;12.77;;;19.50;99.90;;;;;;4962678;29;20442;-70
2023/05/08 10:05:40;;;;;;;13.67;12.57;;;19.50;99.90;;;;;;4960099;28;20505;-69
2023/05/08 10:08:20;;;;;;;14.70;13.60;;;19.60;99.90;;;;;;4959559;29;20445;-71
2023/05/08 10:10:48;;;;;;;13.37;12.37;;;19.60;99.90;;;;;;4959366;29;20427;-72
2023/05/08 10:13:17;;;;;;;13.13;12.03;;;19.60;99.90;;;;;;4959135;29;20446;-72
2023/05/08 10:15:53;;;;;;;13.67;12.47;;;19.70;99.90;;;;;;4958434;29;20836;-72
2023/05/08 10:18:25;;;;;;;14.40;13.30;;;19.70;99.90;;;;;;4958813;29;20853;-72
2023/05/08 10:20:55;;;;;;;13.97;12.77;;;19.70;99.90;;;;;;4958961;29;20904;-72
2023/05/08 10:23:24;;;;;;;14.40;13.30;;;19.80;99.90;;;;;;4957108;29;20482;-72
2023/05/08 10:25:57;;;;;;;15.60;14.10;;;19.80;99.90;;;;;;4958401;29;20459;-72
2023/05/08 10:28:34;;;;;;;14.80;13.60;;;19.80;99.90;;;;;;4958004;29;20921;-72
2023/05/08 10:31:04;;;;;;;14.20;13.10;;;19.80;99.90;;;;;;4957258;29;20449;-72
2023/05/08 10:33:34;;;;;;;14.93;13.60;;;19.90;99.90;;;;;;4958633;28;20433;-72
2023/05/08 10:36:03;;;;;;;14.60;13.40;;;20.00;99.90;;;;;;4958148;29;20476;-72
2023/05/08 10:38:32;;;;;;;13.83;12.67;;;20.00;99.90;;;;;;4957460;29;20525;-72
2023/05/08 10:41:01;;;;;;;15.80;14.10;;;20.10;99.90;;;;;;4957194;29;20510;-72
2023/05/08 10:43:31;;;;;;;14.20;13.10;;;20.20;99.90;;;;;;4958221;29;20430;-72
2023/05/08 10:46:05;;;;;;;12.43;11.53;;;20.20;99.90;;;;;;4958476;29;20469;-72
2023/05/08 10:48:42;;;;;;;13.80;12.70;;;20.20;99.90;;;;;;4958520;28;20883;-72
2023/05/08 10:51:18;;;;;;;12.33;11.33;;;20.30;99.90;;;;;;4958374;29;20896;-71
2023/05/08 10:53:51;;;;;;;13.50;12.40;;;20.40;99.90;;;;;;4958341;29;20774;-72
2023/05/08 10:56:26;;;;;;;13.80;12.77;;;20.40;99.90;;;;;;4957864;29;20458;-72
2023/05/08 10:58:58;;;;;;;13.27;12.07;;;20.50;99.90;;;;;;4958111;29;20433;-72
2023/05/08 11:01:26;;;;;;;14.77;13.50;;;20.50;99.90;;;;;;4956648;29;20820;-72
2023/05/08 11:03:55;;;;;;;14.07;12.97;;;20.60;99.90;;;;;;4956589;29;20505;-72
2023/05/08 11:06:44;;;;;;;13.50;12.47;;;20.60;99.90;;;;;;4957830;28;20493;-72
2023/05/08 11:09:19;;;;;;;12.97;11.97;;;20.60;99.90;;;;;;4957196;29;20451;-72
2023/05/08 11:11:57;;;;;;;14.50;13.40;;;20.60;99.90;;;;;;4958154;28;20430;-72
2023/05/08 11:14:28;;;;;;;12.70;11.60;;;20.60;99.90;;;;;;4956360;29;20466;-73
2023/05/08 11:17:07;;;;;;;12.90;11.70;;;20.70;99.90;;;;;;4958374;29;20474;-72
2023/05/08 11:19:36;;;;;;;13.23;12.13;;;20.70;99.90;;;;;;4958041;28;20442;-73
2023/05/08 11:22:36;;;;;;;14.27;13.17;;;20.70;99.90;;;;;;4958281;28;20446;-72
2023/05/08 11:25:07;;;;;;;13.70;12.70;;;20.80;99.90;;;;;;4957696;29;20995;-72
2023/05/08 11:27:41;;;;;;;14.43;13.23;;;20.80;99.90;;;;;;4957304;29;20427;-72
2023/05/08 11:30:35;;;;;;;14.00;12.70;;;20.80;99.90;;;;;;4957836;29;20427;-72
2023/05/08 11:33:14;;;;;;;13.03;12.03;;;20.90;99.90;;;;;;4939990;28;20451;-72
2023/05/08 11:35:45;;;;;;;13.70;12.60;;;20.90;99.90;;;;;;4956944;29;20481;-72
2023/05/08 11:38:23;;;;;;;13.87;12.77;;;21.00;99.90;;;;;;4957114;29;20415;-72
2023/05/08 11:40:57;;;;;;;13.73;12.53;;;21.00;99.90;;;;;;4957161;28;20518;-72
2023/05/08 11:44:01;;;;;;;12.60;11.60;;;21.10;99.90;;;;;;4957084;29;20418;-72
2023/05/08 11:46:38;;;;;;;13.57;12.47;;;21.10;99.90;;;;;;4953701;29;20493;-72
2023/05/08 11:49:10;;;;;;;14.17;12.87;;;21.10;99.90;;;;;;4956961;28;20419;-73
2023/05/08 11:51:43;;;;;;;13.60;12.40;;;21.10;99.90;;;;;;4956877;28;20426;-72
2023/05/08 11:54:14;;;;;;;14.27;13.07;;;21.20;99.90;;;;;;4957101;29;20549;-72
2023/05/08 11:56:42;;;;;;;13.37;12.17;;;21.20;99.90;;;;;;4957095;29;20454;-72
2023/05/08 11:59:15;;;;;;;12.40;11.40;;;21.20;99.90;;;;;;4956961;29;20430;-72
2023/05/08 12:01:44;;;;;;;14.20;13.10;;;21.20;99.90;;;;;;4956651;29;20486;-72
2023/05/08 12:04:27;;;;;;;14.87;13.67;;;21.20;99.90;;;;;;4956671;29;21000;-72
2023/05/08 12:06:58;;;;;;;12.80;11.70;;;21.20;99.90;;;;;;4956748;29;20438;-72
2023/05/08 12:09:26;;;;;;;14.00;12.80;;;21.20;99.90;;;;;;4956622;29;20515;-72
2023/05/08 12:11:57;;;;;;;14.07;12.80;;;21.20;99.90;;;;;;4956414;29;20438;-72
2023/05/08 12:14:26;;;;;;;12.30;11.30;;;21.20;99.90;;;;;;4956275;29;20458;-72
2023/05/08 12:16:55;;;;;;;14.33;13.00;;;21.20;99.90;;;;;;4956324;29;20474;-72
2023/05/08 12:19:23;;;;;;;13.43;12.33;;;21.30;99.90;;;;;;4956724;29;20447;-72
2023/05/08 12:21:51;;;;;;;15.03;13.73;;;21.30;99.90;;;;;;4957056;29;20450;-72
2023/05/08 12:24:22;;;;;;;13.80;12.70;;;21.20;99.90;;;;;;4955054;28;20470;-72
2023/05/08 12:26:54;;;;;;;13.80;12.70;;;21.30;99.90;;;;;;4956175;28;20439;-72
2023/05/08 12:29:25;;;;;;;13.80;12.70;;;21.30;99.90;;;;;;4955039;29;20964;-72
2023/05/08 12:31:55;;;;;;;12.90;11.80;;;21.30;99.90;;;;;;4956579;29;20796;-72
2023/05/08 12:34:24;;;;;;;15.30;13.77;;;21.30;99.90;;;;;;4955447;29;20529;-72
2023/05/08 12:37:02;;;;;;;12.63;11.63;;;21.30;99.90;;;;;;4956545;29;20485;-72
2023/05/08 12:39:36;;;;;;;12.10;10.83;;;21.30;99.90;;;;;;4957050;28;20504;-72
2023/05/08 12:42:05;;;;;;;12.97;11.93;;;21.30;99.90;;;;;;4956517;29;20828;-72
2023/05/08 12:44:33;;;;;;;13.00;12.00;;;21.40;99.90;;;;;;4955876;29;20477;-72
2023/05/08 12:47:05;;;;;;;11.90;10.90;;;21.40;99.90;;;;;;4956215;28;20450;-73
2023/05/08 12:49:34;;;;;;;12.53;11.43;;;21.50;99.90;;;;;;4956081;29;20793;-72
2023/05/08 12:52:04;;;;;;;11.00;9.93;;;21.50;99.90;;;;;;4954368;29;20459;-72